Time;durP1;ratioP1;P1;durP2;ratioP2;P2;SDS_P1;SDS_P2;PMS_P1;PMS_P2;Temp;Humidity;BMP_temperature;BMP_pressure;BME280_temperature;BME280_humidity;BME280_pressure;Samples;Min_cycle;Max_cycle;Signal;HPM_P1;HPM_P2
2022/07/01 00:00:03;;;;;;;10.18;6.30;;;18.40;99.90;;;;;;5094712;28;20197;-79
2022/07/01 00:02:30;;;;;;;7.57;6.88;;;18.30;99.90;;;;;;5094609;28;20223;-79
2022/07/01 00:04:58;;;;;;;9.85;7.78;;;18.30;99.90;;;;;;5094560;28;20249;-79
2022/07/01 00:07:24;;;;;;;8.90;8.00;;;18.30;99.90;;;;;;5094234;28;20736;-79
2022/07/01 00:09:51;;;;;;;12.18;7.22;;;18.20;99.90;;;;;;5094476;28;20196;-78
2022/07/01 00:12:18;;;;;;;8.02;6.60;;;18.10;99.90;;;;;;5094850;28;20200;-79
2022/07/01 00:14:45;;;;;;;7.97;6.68;;;18.10;99.90;;;;;;5094269;28;20687;-79
2022/07/01 00:17:11;;;;;;;7.85;7.00;;;18.00;99.90;;;;;;5094396;28;20238;-79
2022/07/01 00:19:38;;;;;;;7.43;6.30;;;18.10;99.90;;;;;;5093959;28;20285;-79
2022/07/01 00:22:07;;;;;;;8.57;6.22;;;18.00;99.90;;;;;;5094086;28;20200;-78
2022/07/01 00:24:33;;;;;;;6.20;5.60;;;17.80;99.90;;;;;;5094361;28;20203;-78
2022/07/01 00:27:00;;;;;;;5.95;5.35;;;17.90;99.90;;;;;;5094282;28;20273;-79
2022/07/01 00:29:27;;;;;;;6.38;5.78;;;17.90;99.90;;;;;;5094122;28;20594;-79
2022/07/01 00:31:54;;;;;;;7.10;4.97;;;17.80;99.90;;;;;;5093888;28;20200;-79
2022/07/01 00:34:20;;;;;;;5.43;4.18;;;17.80;99.90;;;;;;5093947;28;20204;-79
2022/07/01 00:36:47;;;;;;;5.68;4.93;;;17.60;99.90;;;;;;5093724;28;20200;-79
2022/07/01 00:39:15;;;;;;;4.55;4.15;;;17.60;99.90;;;;;;5093862;28;20224;-79
2022/07/01 00:41:42;;;;;;;4.97;4.38;;;17.50;99.90;;;;;;5094160;28;20242;-79
2022/07/01 00:44:17;;;;;;;4.25;3.85;;;17.20;99.90;;;;;;5094027;28;20241;-79
2022/07/01 00:46:44;;;;;;;7.10;3.83;;;17.30;99.90;;;;;;5093879;28;20195;-79
2022/07/01 00:49:11;;;;;;;4.30;3.75;;;17.10;99.90;;;;;;5093804;28;20200;-79
2022/07/01 00:51:38;;;;;;;5.93;3.40;;;17.20;99.90;;;;;;5093998;28;20196;-78
2022/07/01 00:54:05;;;;;;;4.80;4.15;;;17.00;99.90;;;;;;5093803;28;20200;-76
2022/07/01 00:56:33;;;;;;;4.50;4.10;;;16.80;99.90;;;;;;5093438;28;20593;-75
2022/07/01 00:59:00;;;;;;;8.40;5.15;;;16.60;99.90;;;;;;5093495;28;20311;-74
2022/07/01 01:01:27;;;;;;;5.20;4.78;;;16.20;99.90;;;;;;5093389;28;20215;-74
2022/07/01 01:03:54;;;;;;;7.07;5.03;;;16.00;99.90;;;;;;5093246;28;20261;-74
2022/07/01 01:06:21;;;;;;;5.28;4.80;;;15.90;99.90;;;;;;5093492;28;20215;-74
2022/07/01 01:08:48;;;;;;;5.95;5.45;;;15.80;99.90;;;;;;5093161;28;20245;-74
2022/07/01 01:11:16;;;;;;;5.93;5.20;;;15.80;99.90;;;;;;5093254;28;20291;-74
2022/07/01 01:13:44;;;;;;;5.70;5.20;;;15.80;99.90;;;;;;5093195;28;20332;-73
2022/07/01 01:16:17;;;;;;;6.17;5.57;;;15.70;99.90;;;;;;5093149;28;20203;-73
2022/07/01 01:18:44;;;;;;;7.20;5.97;;;15.80;99.90;;;;;;5092779;28;20710;-73
2022/07/01 01:21:12;;;;;;;6.30;5.70;;;15.70;99.90;;;;;;5093282;28;20196;-73
2022/07/01 01:23:39;;;;;;;6.90;6.20;;;15.70;99.90;;;;;;5093183;28;20207;-73
2022/07/01 01:26:16;;;;;;;6.30;5.80;;;15.70;99.90;;;;;;5092921;28;20809;-73
2022/07/01 01:28:43;;;;;;;6.80;6.20;;;15.60;99.90;;;;;;5092895;28;20192;-72
2022/07/01 01:31:10;;;;;;;7.27;6.73;;;15.50;99.90;;;;;;5093194;28;20261;-73
2022/07/01 01:33:37;;;;;;;7.10;6.50;;;15.50;99.90;;;;;;5092989;28;20346;-72
2022/07/01 01:36:05;;;;;;;7.50;6.80;;;15.40;99.90;;;;;;5093031;28;20205;-73
2022/07/01 01:38:34;;;;;;;7.47;6.87;;;15.30;99.90;;;;;;5092960;28;20307;-73
2022/07/01 01:41:01;;;;;;;7.60;6.90;;;15.30;99.90;;;;;;5092926;28;20193;-73
2022/07/01 01:43:27;;;;;;;10.57;7.30;;;15.20;99.90;;;;;;5092188;28;20201;-73
2022/07/01 01:45:54;;;;;;;7.50;6.90;;;15.20;99.90;;;;;;5092991;28;20192;-73
2022/07/01 01:48:21;;;;;;;6.67;6.17;;;15.00;99.90;;;;;;5092908;28;20200;-73
2022/07/01 01:50:47;;;;;;;7.50;6.80;;;15.00;99.90;;;;;;5092835;28;20200;-73
2022/07/01 01:53:14;;;;;;;6.87;6.27;;;15.00;99.90;;;;;;5092820;28;20250;-73
2022/07/01 01:55:42;;;;;;;7.80;7.10;;;14.90;99.90;;;;;;5092634;28;20605;-72
2022/07/01 01:58:09;;;;;;;8.30;7.50;;;14.80;99.90;;;;;;5092600;28;20748;-73
2022/07/01 02:00:35;;;;;;;8.97;7.47;;;14.90;99.90;;;;;;5092768;28;20196;-75
2022/07/01 02:03:02;;;;;;;8.50;7.80;;;14.90;99.90;;;;;;5092780;28;20196;-75
2022/07/01 02:05:29;;;;;;;8.73;7.87;;;14.60;99.90;;;;;;5092748;28;20242;-75
2022/07/01 02:07:55;;;;;;;9.83;8.37;;;14.50;99.90;;;;;;5092704;28;20196;-75
2022/07/01 02:10:22;;;;;;;9.57;8.67;;;14.50;99.90;;;;;;5092385;28;20529;-75
2022/07/01 02:12:50;;;;;;;10.67;9.57;;;14.50;99.90;;;;;;5092759;28;20196;-75
2022/07/01 02:15:17;;;;;;;12.67;9.43;;;14.50;99.90;;;;;;5092660;28;20201;-75
2022/07/01 02:17:44;;;;;;;12.00;9.87;;;14.40;99.90;;;;;;5092379;28;20262;-75
2022/07/01 02:20:14;;;;;;;15.80;10.70;;;14.30;99.90;;;;;;5092431;28;20748;-74
2022/07/01 02:22:41;;;;;;;11.20;10.13;;;14.40;99.90;;;;;;5092482;28;20207;-73
2022/07/01 02:25:08;;;;;;;11.23;10.30;;;14.30;99.90;;;;;;5092375;28;20249;-73
2022/07/01 02:27:36;;;;;;;11.63;10.17;;;14.30;99.90;;;;;;5092612;28;20204;-73
2022/07/01 02:30:05;;;;;;;11.80;10.50;;;14.30;99.90;;;;;;5092498;28;20201;-74
2022/07/01 02:32:32;;;;;;;11.87;10.43;;;14.40;99.90;;;;;;5092493;28;20193;-73
2022/07/01 02:34:59;;;;;;;11.67;10.67;;;14.40;99.90;;;;;;5092233;28;20651;-73
2022/07/01 02:37:25;;;;;;;13.13;11.17;;;14.40;99.90;;;;;;5092371;28;20196;-73
2022/07/01 02:39:52;;;;;;;10.50;9.60;;;14.30;99.90;;;;;;5092424;28;20281;-74
2022/07/01 02:42:26;;;;;;;10.00;9.03;;;14.40;99.90;;;;;;5092438;28;20249;-73
2022/07/01 02:44:52;;;;;;;9.20;8.40;;;14.30;99.90;;;;;;5092366;28;20201;-74
2022/07/01 02:47:20;;;;;;;9.37;8.50;;;14.20;99.90;;;;;;5092346;28;20193;-74
2022/07/01 02:49:47;;;;;;;10.03;9.13;;;14.30;99.90;;;;;;5092131;28;20200;-74
2022/07/01 02:52:15;;;;;;;9.40;8.60;;;14.30;99.90;;;;;;5092074;28;20200;-74
2022/07/01 02:54:42;;;;;;;10.40;9.40;;;14.30;99.90;;;;;;5092345;28;20228;-74
2022/07/01 02:57:08;;;;;;;10.00;9.17;;;14.20;99.90;;;;;;5094802;28;20196;-74
2022/07/01 02:59:35;;;;;;;9.50;8.60;;;14.20;99.90;;;;;;5095594;28;20687;-74
2022/07/01 03:02:02;;;;;;;10.27;9.13;;;14.30;99.90;;;;;;5095747;28;20265;-74
2022/07/01 03:04:30;;;;;;;11.27;10.17;;;14.30;99.90;;;;;;5095536;28;20269;-74
2022/07/01 03:06:56;;;;;;;10.60;8.40;;;14.20;99.90;;;;;;5095792;28;20196;-74
2022/07/01 03:09:23;;;;;;;8.97;7.70;;;14.10;99.90;;;;;;5095673;28;20201;-74
2022/07/01 03:11:50;;;;;;;10.40;8.67;;;14.30;99.90;;;;;;5095640;28;20196;-74
2022/07/01 03:14:17;;;;;;;9.90;8.90;;;14.10;99.90;;;;;;5095510;28;20254;-74
2022/07/01 03:16:43;;;;;;;8.40;7.70;;;14.20;99.90;;;;;;5095436;28;20220;-74
2022/07/01 03:19:10;;;;;;;8.27;7.47;;;14.20;99.90;;;;;;5095010;28;20372;-74
2022/07/01 03:21:38;;;;;;;7.30;6.60;;;14.20;99.90;;;;;;5095554;28;20257;-74
2022/07/01 03:24:05;;;;;;;6.67;6.07;;;14.20;99.90;;;;;;5095246;28;20196;-75
2022/07/01 03:26:31;;;;;;;5.53;5.03;;;14.10;99.90;;;;;;5095271;28;20204;-75
2022/07/01 03:28:58;;;;;;;5.97;5.27;;;14.10;99.90;;;;;;5095270;28;20197;-74
2022/07/01 03:31:25;;;;;;;5.00;4.60;;;14.00;99.90;;;;;;5095085;28;20200;-74
2022/07/01 03:33:52;;;;;;;5.07;4.53;;;13.90;99.90;;;;;;5095020;28;20204;-74
2022/07/01 03:36:19;;;;;;;4.97;4.57;;;13.80;99.90;;;;;;5095123;28;20200;-73
2022/07/01 03:38:46;;;;;;;4.80;4.23;;;13.80;99.90;;;;;;5095022;28;20637;-72
2022/07/01 03:41:13;;;;;;;8.30;4.33;;;13.80;99.90;;;;;;5095132;28;20230;-73
2022/07/01 03:43:40;;;;;;;4.37;4.03;;;13.80;99.90;;;;;;5094940;28;20192;-72
2022/07/01 03:46:06;;;;;;;4.23;3.90;;;13.60;99.90;;;;;;5094664;28;20651;-71
2022/07/01 03:48:34;;;;;;;4.37;3.97;;;13.70;99.90;;;;;;5095077;28;20208;-70
2022/07/01 03:51:00;;;;;;;4.30;3.90;;;13.60;99.90;;;;;;5094889;28;20193;-70
2022/07/01 03:56:13;;;;;;;4.20;3.80;;;13.60;99.90;;;;;;5094972;28;20230;-71
2022/07/01 03:58:39;;;;;;;4.43;4.03;;;13.50;99.90;;;;;;5094514;28;20273;-71
2022/07/01 04:01:06;;;;;;;5.80;4.27;;;13.50;99.90;;;;;;5094419;28;20197;-71
2022/07/01 04:03:32;;;;;;;5.07;4.40;;;13.60;99.90;;;;;;5094610;28;20196;-71
2022/07/01 04:05:59;;;;;;;4.60;3.60;;;13.70;99.90;;;;;;5094508;28;20602;-71
2022/07/01 04:08:26;;;;;;;4.87;4.40;;;13.70;99.90;;;;;;5094108;28;20249;-71
2022/07/01 04:10:54;;;;;;;4.53;4.13;;;13.70;99.90;;;;;;5094518;28;20201;-88
2022/07/01 04:13:23;;;;;;;4.03;3.70;;;13.60;99.90;;;;;;5094573;28;20701;-85
2022/07/01 04:15:49;;;;;;;4.33;3.77;;;13.60;99.90;;;;;;5094612;28;20196;-86
2022/07/01 04:18:16;;;;;;;4.50;4.10;;;13.50;99.90;;;;;;5094579;28;20322;-87
2022/07/01 04:22:32;;;;;;;4.03;3.73;;;13.50;99.90;;;;;;5094083;28;20219;-72
2022/07/01 04:23:29;;;;;;;4.60;4.20;;;13.60;99.90;;;;;;5093850;28;20258;-73
2022/07/01 04:25:55;;;;;;;3.50;3.20;;;13.80;99.90;;;;;;5093948;28;20200;-72
2022/07/01 04:28:23;;;;;;;4.63;3.20;;;13.50;99.90;;;;;;5094360;28;20245;-72
2022/07/01 04:30:50;;;;;;;3.40;3.10;;;13.50;99.90;;;;;;5093962;28;20204;-72
2022/07/01 04:33:16;;;;;;;5.03;3.20;;;13.50;99.90;;;;;;5093943;28;20197;-73
2022/07/01 04:35:43;;;;;;;3.93;3.00;;;13.50;99.90;;;;;;5093857;28;20655;-72
2022/07/01 04:38:10;;;;;;;4.20;3.80;;;13.50;99.90;;;;;;5093875;28;20200;-72
2022/07/01 04:40:36;;;;;;;3.57;3.27;;;13.60;99.90;;;;;;5093690;28;20258;-72
2022/07/01 04:43:02;;;;;;;3.37;3.07;;;13.70;99.90;;;;;;5093653;28;20559;-73
2022/07/01 04:45:30;;;;;;;3.20;3.00;;;13.60;99.90;;;;;;5093870;28;20230;-73
2022/07/01 04:47:56;;;;;;;3.40;3.13;;;13.60;99.90;;;;;;5093686;28;20268;-73
2022/07/01 04:50:23;;;;;;;3.70;3.40;;;13.60;99.90;;;;;;5093671;28;20196;-73
2022/07/01 04:52:50;;;;;;;4.57;3.13;;;13.60;99.90;;;;;;5093474;28;20204;-73
2022/07/01 04:55:16;;;;;;;3.10;2.80;;;13.60;99.90;;;;;;5093724;28;20491;-73
2022/07/01 04:57:43;;;;;;;3.80;3.50;;;13.50;99.90;;;;;;5093747;28;20230;-72
2022/07/01 05:00:11;;;;;;;3.77;3.47;;;13.50;99.90;;;;;;5093484;28;20227;-73
2022/07/01 05:02:40;;;;;;;3.70;3.40;;;13.50;99.90;;;;;;5093545;28;20197;-74
2022/07/01 05:05:07;;;;;;;3.33;3.00;;;13.40;99.90;;;;;;5093495;28;20196;-73
2022/07/01 05:07:34;;;;;;;3.30;3.10;;;13.50;99.90;;;;;;5093328;28;20197;-73
2022/07/01 05:10:01;;;;;;;3.60;3.30;;;13.50;99.90;;;;;;5093492;28;20254;-73
2022/07/01 05:12:27;;;;;;;3.73;3.37;;;13.40;99.90;;;;;;5093362;28;20205;-73
2022/07/01 05:14:54;;;;;;;4.50;4.10;;;13.50;99.90;;;;;;5093216;28;20200;-73
2022/07/01 05:21:55;;;;;;;4.50;3.93;;;13.40;99.90;;;;;;5093212;28;20253;-73
2022/07/01 05:22:55;;;;;;;4.23;3.83;;;13.40;99.90;;;;;;5093479;28;20204;-74
2022/07/01 05:25:21;;;;;;;4.93;4.53;;;13.40;99.90;;;;;;5093407;28;20197;-74
2022/07/01 05:27:48;;;;;;;5.17;4.77;;;13.50;99.90;;;;;;5092965;28;20249;-74
2022/07/01 05:30:14;;;;;;;5.23;4.83;;;13.50;99.90;;;;;;5092859;28;20656;-74
2022/07/01 05:32:41;;;;;;;5.80;5.30;;;13.40;99.90;;;;;;5092842;28;20200;-74
2022/07/01 05:35:09;;;;;;;6.77;5.20;;;13.50;99.90;;;;;;5093109;28;20257;-75
2022/07/01 05:37:36;;;;;;;6.10;5.60;;;13.70;99.90;;;;;;5093037;28;20200;-74
2022/07/01 05:40:02;;;;;;;5.87;5.37;;;13.70;99.90;;;;;;5092727;28;20273;-75
2022/07/01 05:42:29;;;;;;;6.43;5.50;;;13.80;99.90;;;;;;5092883;28;20262;-74
2022/07/01 05:44:56;;;;;;;7.10;6.40;;;13.70;99.90;;;;;;5092603;28;20204;-74
2022/07/01 05:47:22;;;;;;;6.70;6.00;;;13.70;99.90;;;;;;5092745;28;20654;-73
2022/07/01 05:49:49;;;;;;;6.77;6.23;;;13.60;99.90;;;;;;5092894;28;20197;-73
2022/07/01 05:52:17;;;;;;;9.00;6.70;;;13.50;99.90;;;;;;5092675;28;20198;-74
2022/07/01 05:54:44;;;;;;;6.90;6.33;;;13.40;99.90;;;;;;5092797;28;20200;-73
2022/07/01 05:57:10;;;;;;;7.30;6.70;;;13.40;99.90;;;;;;5092638;28;20196;-74
2022/07/01 05:59:37;;;;;;;8.40;7.70;;;13.40;99.90;;;;;;5092435;28;20629;-74
2022/07/01 06:02:04;;;;;;;8.53;7.73;;;13.40;99.90;;;;;;5092866;28;20208;-74
2022/07/01 06:04:31;;;;;;;8.10;7.50;;;13.40;99.90;;;;;;5092872;28;20245;-74
2022/07/01 06:06:57;;;;;;;9.70;8.07;;;13.50;99.90;;;;;;5092774;28;20192;-73
2022/07/01 06:09:25;;;;;;;8.83;8.13;;;13.50;99.90;;;;;;5092629;28;20598;-74
2022/07/01 06:11:52;;;;;;;9.30;8.50;;;13.70;99.90;;;;;;5092653;28;20192;-74
2022/07/01 06:14:19;;;;;;;9.53;8.27;;;13.70;99.90;;;;;;5092548;28;20651;-74
2022/07/01 06:16:45;;;;;;;9.70;8.90;;;13.50;99.90;;;;;;5092730;28;20203;-75
2022/07/01 06:19:12;;;;;;;10.23;9.23;;;13.50;99.90;;;;;;5092508;28;20232;-74
2022/07/01 06:21:39;;;;;;;9.83;8.93;;;13.60;99.90;;;;;;5092758;28;20200;-75
2022/07/01 06:24:06;;;;;;;9.67;8.73;;;13.70;99.90;;;;;;5092664;28;20537;-75
2022/07/01 06:26:34;;;;;;;10.43;8.90;;;13.60;99.90;;;;;;5092473;28;20567;-75
2022/07/01 06:29:00;;;;;;;8.87;8.17;;;13.80;99.90;;;;;;5092556;28;20258;-75
2022/07/01 06:31:27;;;;;;;9.23;8.43;;;14.00;99.90;;;;;;5095817;28;20249;-75
2022/07/01 06:33:54;;;;;;;8.83;8.13;;;14.00;99.90;;;;;;5096118;28;20200;-75
2022/07/01 06:36:20;;;;;;;8.87;7.93;;;13.90;99.90;;;;;;5096353;28;20200;-75
2022/07/01 06:38:47;;;;;;;8.63;7.93;;;13.70;99.90;;;;;;5096206;28;20197;-75
2022/07/01 06:41:29;;;;;;;9.40;8.60;;;13.70;99.90;;;;;;5096249;28;20223;-74
2022/07/01 06:43:58;;;;;;;9.47;8.67;;;13.70;99.90;;;;;;5096386;28;20200;-74
2022/07/01 06:46:25;;;;;;;9.77;8.90;;;13.70;99.90;;;;;;5096161;28;20201;-74
2022/07/01 06:48:51;;;;;;;8.63;7.93;;;13.70;99.90;;;;;;5096133;28;20605;-75
2022/07/01 06:51:18;;;;;;;9.17;8.47;;;13.90;99.90;;;;;;5095985;28;20200;-74
2022/07/01 06:53:46;;;;;;;8.53;7.83;;;13.90;99.90;;;;;;5096125;28;20243;-75
2022/07/01 06:56:13;;;;;;;8.67;7.87;;;14.10;99.90;;;;;;5095973;28;20204;-74
2022/07/01 06:58:40;;;;;;;8.57;7.87;;;13.80;99.90;;;;;;5095877;28;20253;-74
2022/07/01 07:01:08;;;;;;;8.20;7.50;;;13.70;99.90;;;;;;5095868;28;20272;-75
2022/07/01 07:03:34;;;;;;;8.77;7.97;;;13.70;99.90;;;;;;5095752;28;20196;-74
2022/07/01 07:06:03;;;;;;;8.70;8.00;;;13.70;99.90;;;;;;5095655;28;20200;-74
2022/07/01 07:08:30;;;;;;;8.60;7.90;;;13.80;99.90;;;;;;5095478;28;20195;-74
2022/07/01 07:10:57;;;;;;;8.73;6.80;;;14.10;99.90;;;;;;5095683;28;20196;-74
2022/07/01 07:13:25;;;;;;;7.13;6.43;;;14.20;99.90;;;;;;5095345;28;20200;-74
2022/07/01 07:15:52;;;;;;;8.03;6.37;;;14.20;99.90;;;;;;5095493;28;20656;-74
2022/07/01 07:18:20;;;;;;;6.93;6.20;;;14.30;99.90;;;;;;5095224;28;20228;-74
2022/07/01 07:20:47;;;;;;;5.70;5.20;;;14.10;99.90;;;;;;5095142;28;20228;-74
2022/07/01 07:23:14;;;;;;;6.13;5.63;;;14.20;99.90;;;;;;5095432;28;20192;-74
2022/07/01 07:25:41;;;;;;;6.70;6.00;;;14.10;99.90;;;;;;5095522;28;20196;-74
2022/07/01 07:28:08;;;;;;;5.87;5.30;;;14.30;99.90;;;;;;5095477;28;20204;-74
2022/07/01 07:30:34;;;;;;;5.60;5.10;;;14.20;99.90;;;;;;5095374;28;20200;-74
2022/07/01 07:33:01;;;;;;;5.40;4.90;;;14.30;99.90;;;;;;5095177;28;20196;-74
2022/07/01 07:35:29;;;;;;;5.80;4.90;;;14.30;99.90;;;;;;5095078;28;20269;-74
2022/07/01 07:37:55;;;;;;;5.73;5.23;;;14.30;99.90;;;;;;5094927;28;20660;-75
2022/07/01 07:40:22;;;;;;;5.40;5.00;;;14.40;99.90;;;;;;5095095;28;20273;-75
2022/07/01 07:42:49;;;;;;;5.83;5.40;;;14.40;99.90;;;;;;5094007;28;20254;-75
2022/07/01 07:45:16;;;;;;;5.47;4.97;;;14.30;99.90;;;;;;5094650;28;20207;-75
2022/07/01 07:47:44;;;;;;;5.07;4.60;;;14.20;99.90;;;;;;5094710;28;20249;-75
2022/07/01 07:50:11;;;;;;;4.70;4.30;;;14.10;99.90;;;;;;5094476;28;20208;-75
2022/07/01 07:52:40;;;;;;;5.60;4.70;;;14.00;99.90;;;;;;5094673;28;20199;-75
2022/07/01 07:55:09;;;;;;;6.67;4.60;;;14.20;99.90;;;;;;5094677;28;20192;-75
2022/07/01 07:57:37;;;;;;;5.27;4.80;;;14.10;99.90;;;;;;5094840;28;20196;-76
2022/07/01 08:00:04;;;;;;;5.63;5.13;;;14.20;99.90;;;;;;5094515;28;20552;-76
2022/07/01 08:02:31;;;;;;;5.53;5.03;;;14.20;99.90;;;;;;5094554;28;20659;-75
2022/07/01 08:04:57;;;;;;;5.87;5.37;;;14.20;99.90;;;;;;5094782;28;20196;-76
2022/07/01 08:07:24;;;;;;;5.63;5.13;;;14.10;99.90;;;;;;5094765;28;20254;-76
2022/07/01 08:09:52;;;;;;;6.57;5.10;;;14.10;99.90;;;;;;5094342;28;20666;-76
2022/07/01 08:12:19;;;;;;;7.50;4.33;;;14.10;99.90;;;;;;5094417;28;20196;-75
2022/07/01 08:14:46;;;;;;;5.60;5.10;;;13.90;99.90;;;;;;5094354;28;20196;-74
2022/07/01 08:17:12;;;;;;;6.23;5.27;;;14.00;99.90;;;;;;5094308;28;20201;-74
2022/07/01 08:19:39;;;;;;;5.30;4.90;;;14.20;99.90;;;;;;5094304;28;20274;-74
2022/07/01 08:22:05;;;;;;;5.80;5.20;;;14.30;99.90;;;;;;5094276;28;20224;-73
2022/07/01 08:24:32;;;;;;;6.00;5.40;;;14.20;99.90;;;;;;5094130;28;20196;-74
2022/07/01 08:27:00;;;;;;;6.20;5.70;;;14.10;99.90;;;;;;5094078;28;20196;-74
2022/07/01 08:29:27;;;;;;;5.87;5.17;;;14.10;99.90;;;;;;5094094;28;20253;-74
2022/07/01 08:31:53;;;;;;;6.30;5.70;;;14.10;99.90;;;;;;5093956;28;20197;-74
2022/07/01 08:34:20;;;;;;;5.27;4.77;;;14.00;99.90;;;;;;5094157;28;20193;-74
2022/07/01 08:36:47;;;;;;;5.03;4.63;;;13.90;99.90;;;;;;5094039;28;20200;-74
2022/07/01 08:39:13;;;;;;;5.57;5.17;;;14.00;99.90;;;;;;5093826;28;20250;-74
2022/07/01 08:41:41;;;;;;;6.20;5.33;;;14.10;99.90;;;;;;5093843;28;20216;-75
2022/07/01 08:44:09;;;;;;;5.80;5.30;;;13.90;99.90;;;;;;5093604;28;20197;-76
2022/07/01 08:46:36;;;;;;;5.90;5.20;;;13.80;99.90;;;;;;5094019;28;20204;-76
2022/07/01 08:49:03;;;;;;;5.77;4.60;;;13.70;99.90;;;;;;5093833;28;20558;-75
2022/07/01 08:51:30;;;;;;;4.60;4.20;;;13.60;99.90;;;;;;5093602;28;20647;-77
2022/07/01 08:53:57;;;;;;;4.90;4.50;;;13.60;99.90;;;;;;5093542;28;20231;-76
2022/07/01 08:56:42;;;;;;;5.67;4.00;;;13.70;99.90;;;;;;5093517;28;20728;-76
2022/07/01 08:59:10;;;;;;;5.07;4.67;;;13.80;99.90;;;;;;5093705;28;20344;-75
2022/07/01 09:01:38;;;;;;;6.13;4.00;;;13.90;99.90;;;;;;5093618;28;20232;-76
2022/07/01 09:04:15;;;;;;;4.73;3.77;;;13.90;99.90;;;;;;5093495;28;20200;-76
2022/07/01 09:06:42;;;;;;;4.07;3.77;;;14.10;99.90;;;;;;5093413;28;20272;-75
2022/07/01 09:09:13;;;;;;;3.40;3.00;;;14.20;99.90;;;;;;5093245;28;20656;-76
2022/07/01 09:11:45;;;;;;;4.03;3.27;;;14.10;99.90;;;;;;5093438;28;20616;-76
2022/07/01 09:14:15;;;;;;;4.63;3.43;;;14.20;99.90;;;;;;5093407;28;20287;-76
2022/07/01 09:16:43;;;;;;;6.43;3.60;;;14.20;99.90;;;;;;5093016;28;20658;-76
2022/07/01 09:19:10;;;;;;;3.53;3.23;;;14.20;99.90;;;;;;5092908;28;20235;-76
2022/07/01 09:21:38;;;;;;;3.60;3.30;;;14.20;99.90;;;;;;5093077;28;20228;-76
2022/07/01 09:24:23;;;;;;;3.67;3.13;;;14.10;99.90;;;;;;5093190;28;20203;-76
2022/07/01 09:26:53;;;;;;;3.43;3.13;;;14.10;99.90;;;;;;5093164;28;20202;-76
2022/07/01 09:29:21;;;;;;;4.27;3.67;;;14.10;99.90;;;;;;5093015;28;20200;-76
2022/07/01 09:31:49;;;;;;;4.90;4.23;;;14.10;99.90;;;;;;5092919;28;20253;-76
2022/07/01 09:34:16;;;;;;;5.33;4.60;;;14.10;99.90;;;;;;5092770;28;20207;-76
2022/07/01 09:36:53;;;;;;;4.60;4.20;;;13.90;99.90;;;;;;5092848;28;20193;-77
2022/07/01 09:39:19;;;;;;;4.03;3.73;;;13.80;99.90;;;;;;5092953;28;20200;-77
2022/07/01 09:41:46;;;;;;;5.97;3.70;;;13.80;99.90;;;;;;5092714;28;20228;-77
2022/07/01 09:44:13;;;;;;;4.20;3.80;;;13.90;99.90;;;;;;5093336;28;20223;-77
2022/07/01 09:46:52;;;;;;;4.53;4.00;;;13.80;99.90;;;;;;5092522;28;20639;-76
2022/07/01 09:49:19;;;;;;;4.20;3.80;;;13.80;99.90;;;;;;5092883;28;20200;-76
2022/07/01 09:51:46;;;;;;;5.40;4.07;;;13.80;99.90;;;;;;5092719;28;20651;-76
2022/07/01 09:54:13;;;;;;;3.80;3.40;;;14.00;99.90;;;;;;5092613;28;20246;-75
2022/07/01 09:56:40;;;;;;;3.43;2.90;;;14.10;99.90;;;;;;5092676;28;20196;-75
2022/07/01 09:59:06;;;;;;;3.83;3.30;;;14.20;99.90;;;;;;5092628;28;20288;-75
2022/07/01 10:01:34;;;;;;;3.10;2.80;;;14.00;99.90;;;;;;5092485;28;20292;-76
2022/07/01 10:04:05;;;;;;;2.90;2.70;;;14.10;99.90;;;;;;5092634;28;20246;-76
2022/07/01 10:07:18;;;;;;;3.67;3.30;;;14.00;99.90;;;;;;5096350;28;20204;-76
2022/07/01 10:10:03;;;;;;;4.50;3.40;;;13.80;99.90;;;;;;5081899;28;20732;-75
2022/07/01 10:12:36;;;;;;;4.23;3.10;;;13.80;99.90;;;;;;5096783;28;20257;-75
2022/07/01 10:15:06;;;;;;;3.70;3.40;;;13.80;99.90;;;;;;5096674;28;20245;-75
2022/07/01 10:17:37;;;;;;;3.70;3.30;;;13.70;99.90;;;;;;5096541;28;20230;-76
2022/07/01 10:20:11;;;;;;;3.97;3.40;;;13.60;99.90;;;;;;5096487;28;20200;-75
2022/07/01 10:22:38;;;;;;;5.80;3.40;;;13.80;99.90;;;;;;5096629;28;20277;-75
2022/07/01 10:25:33;;;;;;;4.10;3.70;;;13.90;99.90;;;;;;5096512;28;20246;-75
2022/07/01 10:28:30;;;;;;;3.97;3.63;;;14.10;99.90;;;;;;5096547;28;20203;-76
2022/07/01 10:31:03;;;;;;;3.50;3.20;;;14.20;99.90;;;;;;5096572;28;20193;-76
2022/07/01 10:33:42;;;;;;;3.97;3.13;;;14.10;99.90;;;;;;5096430;28;20192;-76
2022/07/01 10:36:27;;;;;;;4.30;3.00;;;14.10;99.90;;;;;;5096287;28;20235;-75
2022/07/01 10:39:27;;;;;;;3.33;2.83;;;14.10;99.90;;;;;;5093584;28;20197;-75
2022/07/01 10:42:02;;;;;;;3.30;3.00;;;14.00;99.90;;;;;;5095969;28;20315;-75
2022/07/01 10:44:29;;;;;;;3.63;3.13;;;14.00;99.90;;;;;;5096213;28;20325;-75
2022/07/01 10:47:02;;;;;;;3.90;3.30;;;14.00;99.90;;;;;;5095913;28;20249;-75
2022/07/01 10:50:06;;;;;;;4.10;3.60;;;13.90;99.90;;;;;;5095915;28;20651;-75
2022/07/01 10:52:34;;;;;;;3.50;3.20;;;13.80;99.90;;;;;;5033566;28;20260;-75
2022/07/01 10:55:02;;;;;;;5.43;3.50;;;13.70;99.90;;;;;;5033509;28;20202;-75
2022/07/01 10:57:38;;;;;;;4.20;3.80;;;13.70;99.90;;;;;;5063697;28;20341;-75
2022/07/01 11:00:34;;;;;;;5.67;3.47;;;13.90;99.90;;;;;;5096037;28;20255;-75
2022/07/01 11:03:18;;;;;;;3.97;3.57;;;13.80;99.90;;;;;;5095720;28;20238;-75
2022/07/01 11:05:46;;;;;;;4.50;4.10;;;13.90;99.90;;;;;;5095572;28;20204;-76
2022/07/01 11:08:15;;;;;;;3.87;3.57;;;13.90;99.90;;;;;;5095559;28;20647;-75
2022/07/01 11:10:42;;;;;;;4.43;4.03;;;14.10;99.90;;;;;;5095613;28;20452;-75
2022/07/01 11:13:12;;;;;;;3.93;3.63;;;13.90;99.90;;;;;;5095763;28;20246;-75
2022/07/01 11:15:39;;;;;;;7.00;4.10;;;13.60;99.90;;;;;;5095509;28;20712;-75
2022/07/01 11:18:06;;;;;;;6.83;4.10;;;13.60;99.90;;;;;;5094282;28;20232;-75
2022/07/01 11:20:33;;;;;;;4.77;4.37;;;13.70;99.90;;;;;;5095378;28;20253;-76
2022/07/01 11:23:01;;;;;;;4.87;4.47;;;13.70;99.90;;;;;;5095588;28;20647;-76
2022/07/01 11:25:31;;;;;;;5.27;4.77;;;13.60;99.90;;;;;;5095528;28;20200;-77
2022/07/01 11:27:57;;;;;;;4.70;4.30;;;13.70;99.90;;;;;;5095355;28;20598;-77
2022/07/01 11:30:24;;;;;;;6.37;4.60;;;13.70;99.90;;;;;;5095357;28;20651;-77
2022/07/01 11:32:53;;;;;;;6.37;5.00;;;13.60;99.90;;;;;;5095337;28;20250;-77
2022/07/01 11:40:59;;;;;;;6.10;4.63;;;13.30;99.90;;;;;;5095141;28;20306;-76
2022/07/01 11:43:27;;;;;;;5.83;4.80;;;13.20;99.90;;;;;;5094941;28;20200;-76
2022/07/01 11:45:55;;;;;;;6.10;5.43;;;13.20;99.90;;;;;;5094904;28;20651;-76
2022/07/01 11:48:32;;;;;;;8.70;5.80;;;13.10;99.90;;;;;;5095097;28;20204;-75
2022/07/01 11:51:01;;;;;;;6.27;5.67;;;13.20;99.90;;;;;;5094947;28;20329;-75
2022/07/01 11:53:29;;;;;;;5.80;5.20;;;13.30;99.90;;;;;;5094866;28;20652;-75
2022/07/01 11:55:55;;;;;;;6.60;6.00;;;13.30;99.90;;;;;;5094790;28;20197;-76
2022/07/01 11:58:23;;;;;;;6.23;5.40;;;13.50;99.90;;;;;;5094846;28;20200;-76
2022/07/01 12:00:50;;;;;;;6.00;5.40;;;13.40;99.90;;;;;;5094776;28;20265;-76
2022/07/01 12:03:30;;;;;;;6.67;5.67;;;13.50;99.90;;;;;;5094722;28;20300;-76
2022/07/01 12:05:58;;;;;;;7.33;5.03;;;13.60;99.90;;;;;;5094688;28;20199;-76
2022/07/01 12:08:25;;;;;;;5.70;4.50;;;13.40;99.90;;;;;;5094494;28;20242;-76
2022/07/01 12:10:51;;;;;;;5.57;5.07;;;13.40;99.90;;;;;;5094473;28;20196;-77
2022/07/01 12:13:24;;;;;;;6.03;4.77;;;13.50;99.90;;;;;;5094660;28;20610;-76
2022/07/01 12:15:51;;;;;;;5.63;4.47;;;13.60;99.90;;;;;;5094641;28;20200;-76
2022/07/01 12:18:18;;;;;;;4.87;4.47;;;13.60;99.90;;;;;;5094511;28;20228;-76
2022/07/01 12:20:53;;;;;;;4.80;4.30;;;13.50;99.90;;;;;;5094347;28;20196;-76
2022/07/01 12:23:20;;;;;;;7.07;4.57;;;13.50;99.90;;;;;;5094345;28;20364;-76
2022/07/01 12:25:51;;;;;;;4.00;3.60;;;13.30;99.90;;;;;;5094177;28;20246;-76
2022/07/01 12:28:27;;;;;;;4.37;3.50;;;13.20;99.90;;;;;;5093804;28;20644;-76
2022/07/01 12:31:03;;;;;;;4.63;3.63;;;13.20;99.90;;;;;;5094293;28;20196;-75
2022/07/01 12:33:30;;;;;;;4.30;3.90;;;13.10;99.90;;;;;;5094408;28;20203;-75
2022/07/01 12:35:57;;;;;;;5.83;4.40;;;13.10;99.90;;;;;;5094245;28;20201;-75
2022/07/01 12:38:24;;;;;;;4.23;3.83;;;12.90;99.90;;;;;;5094163;28;20226;-75
2022/07/01 12:40:50;;;;;;;6.23;4.57;;;12.70;99.90;;;;;;5094342;28;20250;-74
2022/07/01 12:43:28;;;;;;;6.17;4.87;;;12.70;99.90;;;;;;5093876;28;20274;-75
2022/07/01 12:45:55;;;;;;;5.07;4.57;;;12.60;99.90;;;;;;5093778;28;20200;-75
2022/07/01 12:48:22;;;;;;;5.77;5.27;;;12.50;99.90;;;;;;5094028;28;20199;-76
2022/07/01 12:50:52;;;;;;;6.80;6.10;;;12.80;99.90;;;;;;5093776;28;20196;-76
2022/07/01 12:53:21;;;;;;;6.37;4.77;;;13.20;99.90;;;;;;5093840;28;20200;-76
2022/07/01 12:55:49;;;;;;;4.90;4.10;;;13.30;99.90;;;;;;5093745;28;20227;-76
2022/07/01 12:58:17;;;;;;;4.73;3.67;;;13.00;99.90;;;;;;5093521;28;20200;-76
2022/07/01 13:00:48;;;;;;;4.30;3.90;;;13.00;99.90;;;;;;5093807;28;20200;-76
2022/07/01 13:03:14;;;;;;;5.83;4.60;;;12.80;99.90;;;;;;5093631;28;20232;-76